sensor_id;sensor_type;location;lat;lon;timestamp;pressure;altitude;pressure_sealevel;temperature;humidity
17054;BME280;8643;48.824;11.422;2022-12-18T00:00:11;98144.66;;;-8.49;100.00
17054;BME280;8643;48.824;11.422;2022-12-18T00:02:40;98153.13;;;-8.45;100.00
17054;BME280;8643;48.824;11.422;2022-12-18T00:05:10;98161.91;;;-8.45;100.00
17054;BME280;8643;48.824;11.422;2022-12-18T00:07:39;98169.88;;;-8.45;100.00
17054;BME280;8643;48.824;11.422;2022-12-18T00:10:08;98172.78;;;-8.40;100.00
17054;BME280;8643;48.824;11.422;2022-12-18T00:12:41;98181.31;;;-8.44;100.00
17054;BME280;8643;48.824;11.422;2022-12-18T00:15:10;98178.66;;;-8.44;100.00
17054;BME280;8643;48.824;11.422;2022-12-18T00:17:39;98165.56;;;-8.46;100.00
17054;BME280;8643;48.824;11.422;2022-12-18T00:20:10;98166.00;;;-8.42;100.00
17054;BME280;8643;48.824;11.422;2022-12-18T00:22:38;98154.56;;;-8.43;100.00
17054;BME280;8643;48.824;11.422;2022-12-18T00:25:08;98151.91;;;-8.43;100.00
17054;BME280;8643;48.824;11.422;2022-12-18T00:27:36;98153.28;;;-8.47;100.00
17054;BME280;8643;48.824;11.422;2022-12-18T00:30:06;98152.34;;;-8.39;100.00
17054;BME280;8643;48.824;11.422;2022-12-18T00:32:36;98163.91;;;-8.32;100.00
17054;BME280;8643;48.824;11.422;2022-12-18T00:35:06;98164.00;;;-8.25;100.00
17054;BME280;8643;48.824;11.422;2022-12-18T00:37:36;98167.59;;;-8.18;100.00
17054;BME280;8643;48.824;11.422;2022-12-18T00:40:06;98161.63;;;-8.20;100.00
17054;BME280;8643;48.824;11.422;2022-12-18T00:42:36;98147.44;;;-8.13;100.00
17054;BME280;8643;48.824;11.422;2022-12-18T00:45:24;98144.97;;;-8.14;100.00
17054;BME280;8643;48.824;11.422;2022-12-18T00:47:54;98144.88;;;-8.06;100.00
17054;BME280;8643;48.824;11.422;2022-12-18T00:50:24;98148.88;;;-8.10;100.00
17054;BME280;8643;48.824;11.422;2022-12-18T00:52:54;98146.22;;;-8.10;100.00
17054;BME280;8643;48.824;11.422;2022-12-18T00:55:23;98140.19;;;-8.04;100.00
17054;BME280;8643;48.824;11.422;2022-12-18T00:57:51;98140.63;;;-8.00;100.00
17054;BME280;8643;48.824;11.422;2022-12-18T01:00:20;98148.44;;;-7.99;100.00
17054;BME280;8643;48.824;11.422;2022-12-18T01:02:49;98158.72;;;-7.96;100.00
17054;BME280;8643;48.824;11.422;2022-12-18T01:05:18;98162.22;;;-7.95;100.00
17054;BME280;8643;48.824;11.422;2022-12-18T01:07:47;98174.66;;;-7.96;100.00
17054;BME280;8643;48.824;11.422;2022-12-18T01:10:17;98173.03;;;-7.97;100.00
17054;BME280;8643;48.824;11.422;2022-12-18T01:12:46;98189.72;;;-7.88;100.00
17054;BME280;8643;48.824;11.422;2022-12-18T01:15:16;98195.28;;;-7.83;100.00
17054;BME280;8643;48.824;11.422;2022-12-18T01:17:45;98198.88;;;-7.90;100.00
17054;BME280;8643;48.824;11.422;2022-12-18T01:20:14;98195.22;;;-7.89;100.00
17054;BME280;8643;48.824;11.422;2022-12-18T01:22:42;98192.53;;;-7.89;100.00
17054;BME280;8643;48.824;11.422;2022-12-18T01:25:11;98196.28;;;-7.84;100.00
17054;BME280;8643;48.824;11.422;2022-12-18T01:27:41;98198.50;;;-7.87;100.00
17054;BME280;8643;48.824;11.422;2022-12-18T01:30:10;98200.16;;;-7.86;100.00
17054;BME280;8643;48.824;11.422;2022-12-18T01:32:39;98210.44;;;-7.83;100.00
17054;BME280;8643;48.824;11.422;2022-12-18T01:35:08;98211.16;;;-7.75;100.00
17054;BME280;8643;48.824;11.422;2022-12-18T01:37:37;98211.16;;;-7.75;100.00
17054;BME280;8643;48.824;11.422;2022-12-18T01:40:07;98209.22;;;-7.81;100.00
17054;BME280;8643;48.824;11.422;2022-12-18T01:42:36;98203.72;;;-7.79;100.00
17054;BME280;8643;48.824;11.422;2022-12-18T01:45:24;98211.06;;;-7.81;100.00
17054;BME280;8643;48.824;11.422;2022-12-18T01:47:58;98210.06;;;-7.80;100.00
17054;BME280;8643;48.824;11.422;2022-12-18T01:50:31;98211.53;;;-7.78;100.00
17054;BME280;8643;48.824;11.422;2022-12-18T01:53:06;98206.03;;;-7.76;100.00
17054;BME280;8643;48.824;11.422;2022-12-18T01:55:42;98208.50;;;-7.75;100.00
17054;BME280;8643;48.824;11.422;2022-12-18T01:58:11;98204.00;;;-7.74;100.00
17054;BME280;8643;48.824;11.422;2022-12-18T02:00:42;98200.53;;;-7.75;100.00
17054;BME280;8643;48.824;11.422;2022-12-18T02:03:11;98210.63;;;-7.70;100.00
17054;BME280;8643;48.824;11.422;2022-12-18T02:05:47;98219.03;;;-7.66;100.00
17054;BME280;8643;48.824;11.422;2022-12-18T02:08:26;98218.31;;;-7.60;100.00
17054;BME280;8643;48.824;11.422;2022-12-18T02:11:07;98217.31;;;-7.59;100.00
17054;BME280;8643;48.824;11.422;2022-12-18T02:13:46;98213.63;;;-7.58;100.00
17054;BME280;8643;48.824;11.422;2022-12-18T02:16:30;98201.19;;;-7.58;100.00
17054;BME280;8643;48.824;11.422;2022-12-18T02:19:15;98200.59;;;-7.53;100.00
17054;BME280;8643;48.824;11.422;2022-12-18T02:21:58;98202.44;;;-7.53;100.00
17054;BME280;8643;48.824;11.422;2022-12-18T02:24:42;98197.38;;;-7.48;100.00
17054;BME280;8643;48.824;11.422;2022-12-18T02:27:16;98197.38;;;-7.48;100.00
17054;BME280;8643;48.824;11.422;2022-12-18T02:29:51;98194.34;;;-7.45;100.00
17054;BME280;8643;48.824;11.422;2022-12-18T02:32:32;98194.00;;;-7.42;100.00
17054;BME280;8643;48.824;11.422;2022-12-18T02:35:06;98203.16;;;-7.45;100.00
17054;BME280;8643;48.824;11.422;2022-12-18T02:37:39;98210.94;;;-7.43;100.00
17054;BME280;8643;48.824;11.422;2022-12-18T02:40:12;98205.63;;;-7.43;100.00
17054;BME280;8643;48.824;11.422;2022-12-18T02:42:43;98200.97;;;-7.41;100.00
17054;BME280;8643;48.824;11.422;2022-12-18T02:45:16;98202.06;;;-7.35;100.00
17054;BME280;8643;48.824;11.422;2022-12-18T02:47:48;98203.06;;;-7.37;100.00
17054;BME280;8643;48.824;11.422;2022-12-18T02:50:26;98208.19;;;-7.35;100.00
17054;BME280;8643;48.824;11.422;2022-12-18T02:53:10;98195.91;;;-7.36;100.00
17054;BME280;8643;48.824;11.422;2022-12-18T02:55:59;98194.06;;;-7.35;100.00
17054;BME280;8643;48.824;11.422;2022-12-18T02:58:46;98197.84;;;-7.30;100.00
17054;BME280;8643;48.824;11.422;2022-12-18T03:01:35;98195.00;;;-7.28;100.00
17054;BME280;8643;48.824;11.422;2022-12-18T03:04:12;98191.28;;;-7.27;100.00
17054;BME280;8643;48.824;11.422;2022-12-18T03:06:48;98194.59;;;-7.25;100.00
17054;BME280;8643;48.824;11.422;2022-12-18T03:09:21;98184.97;;;-7.26;100.00
17054;BME280;8643;48.824;11.422;2022-12-18T03:11:56;98187.63;;;-7.26;100.00
17054;BME280;8643;48.824;11.422;2022-12-18T03:15:03;98191.13;;;-7.26;100.00
17054;BME280;8643;48.824;11.422;2022-12-18T03:17:34;98196.06;;;-7.23;100.00
17054;BME280;8643;48.824;11.422;2022-12-18T03:20:10;98199.81;;;-7.17;100.00
17054;BME280;8643;48.824;11.422;2022-12-18T03:22:43;98201.03;;;-7.20;100.00
17054;BME280;8643;48.824;11.422;2022-12-18T03:25:16;98196.13;;;-7.16;100.00
17054;BME280;8643;48.824;11.422;2022-12-18T03:27:51;98191.91;;;-7.10;100.00
17054;BME280;8643;48.824;11.422;2022-12-18T03:30:28;98195.59;;;-7.11;100.00
17054;BME280;8643;48.824;11.422;2022-12-18T03:33:05;98194.59;;;-7.10;100.00
17054;BME280;8643;48.824;11.422;2022-12-18T03:35:42;98206.03;;;-7.10;100.00
17054;BME280;8643;48.824;11.422;2022-12-18T03:38:12;98204.00;;;-7.08;100.00
17054;BME280;8643;48.824;11.422;2022-12-18T03:40:58;98199.31;;;-7.06;100.00
17054;BME280;8643;48.824;11.422;2022-12-18T03:43:42;98200.78;;;-7.03;100.00
17054;BME280;8643;48.824;11.422;2022-12-18T03:46:22;98199.97;;;-7.04;100.00
17054;BME280;8643;48.824;11.422;2022-12-18T03:49:00;98195.91;;;-7.00;100.00
17054;BME280;8643;48.824;11.422;2022-12-18T03:51:39;98193.06;;;-6.98;100.00
17054;BME280;8643;48.824;11.422;2022-12-18T03:54:11;98190.59;;;-7.00;100.00
17054;BME280;8643;48.824;11.422;2022-12-18T03:56:54;98191.69;;;-6.94;100.00
17054;BME280;8643;48.824;11.422;2022-12-18T03:59:27;98197.81;;;-6.93;100.00
17054;BME280;8643;48.824;11.422;2022-12-18T04:02:01;98201.78;;;-6.89;100.00
17054;BME280;8643;48.824;11.422;2022-12-18T04:04:33;98206.88;;;-6.88;100.00
17054;BME280;8643;48.824;11.422;2022-12-18T04:07:05;98208.34;;;-6.85;100.00
17054;BME280;8643;48.824;11.422;2022-12-18T04:09:37;98207.53;;;-6.86;100.00
17054;BME280;8643;48.824;11.422;2022-12-18T04:12:08;98218.44;;;-6.80;100.00
17054;BME280;8643;48.824;11.422;2022-12-18T04:14:37;98208.78;;;-6.82;100.00
17054;BME280;8643;48.824;11.422;2022-12-18T04:17:09;98201.84;;;-6.83;100.00
17054;BME280;8643;48.824;11.422;2022-12-18T04:19:39;98204.50;;;-6.83;100.00
17054;BME280;8643;48.824;11.422;2022-12-18T04:22:10;98204.75;;;-6.77;100.00
17054;BME280;8643;48.824;11.422;2022-12-18T04:24:43;98203.28;;;-6.80;100.00
17054;BME280;8643;48.824;11.422;2022-12-18T04:27:20;98206.97;;;-6.81;100.00
17054;BME280;8643;48.824;11.422;2022-12-18T04:29:50;98207.59;;;-6.79;100.00
17054;BME280;8643;48.824;11.422;2022-12-18T04:32:20;98211.34;;;-6.73;100.00
17054;BME280;8643;48.824;11.422;2022-12-18T04:34:49;98229.16;;;-6.74;100.00
17054;BME280;8643;48.824;11.422;2022-12-18T04:37:18;98236.53;;;-6.76;100.00
17054;BME280;8643;48.824;11.422;2022-12-18T04:39:49;98235.75;;;-6.70;100.00
17054;BME280;8643;48.824;11.422;2022-12-18T04:42:27;98235.13;;;-6.72;100.00
17054;BME280;8643;48.824;11.422;2022-12-18T04:44:56;98235.75;;;-6.70;100.00
17054;BME280;8643;48.824;11.422;2022-12-18T04:47:25;98239.44;;;-6.71;100.00
17054;BME280;8643;48.824;11.422;2022-12-18T04:49:54;98232.09;;;-6.69;100.00
17054;BME280;8643;48.824;11.422;2022-12-18T04:52:22;98233.56;;;-6.66;100.00
17054;BME280;8643;48.824;11.422;2022-12-18T04:54:51;98226.19;;;-6.64;100.00
17054;BME280;8643;48.824;11.422;2022-12-18T04:57:19;98227.84;;;-6.63;100.00
17054;BME280;8643;48.824;11.422;2022-12-18T04:59:48;98227.00;;;-6.64;100.00
17054;BME280;8643;48.824;11.422;2022-12-18T05:02:17;98234.00;;;-6.63;100.00
17054;BME280;8643;48.824;11.422;2022-12-18T05:04:46;98229.84;;;-6.65;100.00
17054;BME280;8643;48.824;11.422;2022-12-18T05:07:15;98236.91;;;-6.57;100.00
17054;BME280;8643;48.824;11.422;2022-12-18T05:09:44;98237.16;;;-6.52;100.00
17054;BME280;8643;48.824;11.422;2022-12-18T05:12:12;98248.19;;;-6.55;100.00
17054;BME280;8643;48.824;11.422;2022-12-18T05:14:41;98246.75;;;-6.58;100.00
17054;BME280;8643;48.824;11.422;2022-12-18T05:17:10;98243.06;;;-6.57;100.00
17054;BME280;8643;48.824;11.422;2022-12-18T05:19:38;98248.00;;;-6.54;100.00
17054;BME280;8643;48.824;11.422;2022-12-18T05:22:09;98251.72;;;-6.55;100.00
17054;BME280;8643;48.824;11.422;2022-12-18T05:24:38;98255.63;;;-6.51;100.00
17054;BME280;8643;48.824;11.422;2022-12-18T05:27:06;98242.69;;;-6.54;100.00
17054;BME280;8643;48.824;11.422;2022-12-18T05:29:35;98245.16;;;-6.52;100.00
17054;BME280;8643;48.824;11.422;2022-12-18T05:32:04;98235.34;;;-6.52;100.00
17054;BME280;8643;48.824;11.422;2022-12-18T05:34:32;98248.66;;;-6.52;100.00
17054;BME280;8643;48.824;11.422;2022-12-18T05:37:01;98244.72;;;-6.56;100.00
17054;BME280;8643;48.824;11.422;2022-12-18T05:39:31;98252.97;;;-6.51;100.00
17054;BME280;8643;48.824;11.422;2022-12-18T05:41:59;98246.38;;;-6.55;100.00
17054;BME280;8643;48.824;11.422;2022-12-18T05:44:28;98266.91;;;-6.49;100.00
17054;BME280;8643;48.824;11.422;2022-12-18T05:46:56;98276.56;;;-6.48;100.00
17054;BME280;8643;48.824;11.422;2022-12-18T05:49:25;98279.88;;;-6.46;100.00
17054;BME280;8643;48.824;11.422;2022-12-18T05:51:54;98261.41;;;-6.47;100.00
17054;BME280;8643;48.824;11.422;2022-12-18T05:54:22;98265.72;;;-6.46;100.00
17054;BME280;8643;48.824;11.422;2022-12-18T05:56:52;98252.59;;;-6.48;100.00
17054;BME280;8643;48.824;11.422;2022-12-18T05:59:20;98246.88;;;-6.45;100.00
17054;BME280;8643;48.824;11.422;2022-12-18T06:01:49;98249.34;;;-6.43;100.00
17054;BME280;8643;48.824;11.422;2022-12-18T06:04:18;98250.56;;;-6.46;100.00
17054;BME280;8643;48.824;11.422;2022-12-18T06:06:47;98247.88;;;-6.46;100.00
17054;BME280;8643;48.824;11.422;2022-12-18T06:09:16;98254.88;;;-6.45;100.00
17054;BME280;8643;48.824;11.422;2022-12-18T06:11:44;98253.41;;;-6.47;100.00
17054;BME280;8643;48.824;11.422;2022-12-18T06:14:14;98257.91;;;-6.48;100.00
17054;BME280;8643;48.824;11.422;2022-12-18T06:16:44;98268.19;;;-6.45;100.00
17054;BME280;8643;48.824;11.422;2022-12-18T06:19:15;98272.34;;;-6.42;100.00
17054;BME280;8643;48.824;11.422;2022-12-18T06:21:44;98269.47;;;-6.40;100.00
17054;BME280;8643;48.824;11.422;2022-12-18T06:24:13;98272.53;;;-6.43;100.00
17054;BME280;8643;48.824;11.422;2022-12-18T06:26:41;98279.31;;;-6.41;100.00
17054;BME280;8643;48.824;11.422;2022-12-18T06:29:10;98274.78;;;-6.40;100.00
17054;BME280;8643;48.824;11.422;2022-12-18T06:31:40;98281.34;;;-6.43;100.00
17054;BME280;8643;48.824;11.422;2022-12-18T06:34:08;98282.53;;;-6.46;100.00
17054;BME280;8643;48.824;11.422;2022-12-18T06:36:37;98280.91;;;-6.47;100.00
17054;BME280;8643;48.824;11.422;2022-12-18T06:39:06;98284.19;;;-6.45;100.00
17054;BME280;8643;48.824;11.422;2022-12-18T06:41:35;98281.91;;;-6.48;100.00
17054;BME280;8643;48.824;11.422;2022-12-18T06:44:05;98283.38;;;-6.45;100.00
17054;BME280;8643;48.824;11.422;2022-12-18T06:46:34;98270.69;;;-6.43;100.00
17054;BME280;8643;48.824;11.422;2022-12-18T06:49:04;98268.19;;;-6.45;100.00
17054;BME280;8643;48.824;11.422;2022-12-18T06:51:33;98273.53;;;-6.45;100.00
17054;BME280;8643;48.824;11.422;2022-12-18T06:54:01;98292.19;;;-6.45;100.00
17054;BME280;8643;48.824;11.422;2022-12-18T06:56:30;98304.41;;;-6.35;100.00
17054;BME280;8643;48.824;11.422;2022-12-18T06:58:59;98307.06;;;-6.35;100.00
17054;BME280;8643;48.824;11.422;2022-12-18T07:01:27;98301.53;;;-6.34;100.00
17054;BME280;8643;48.824;11.422;2022-12-18T07:03:57;98293.13;;;-6.31;100.00
17054;BME280;8643;48.824;11.422;2022-12-18T07:06:26;98299.31;;;-6.30;100.00
17054;BME280;8643;48.824;11.422;2022-12-18T07:08:56;98300.94;;;-6.29;100.00
17054;BME280;8643;48.824;11.422;2022-12-18T07:11:24;98304.19;;;-6.34;100.00
17054;BME280;8643;48.824;11.422;2022-12-18T07:13:53;98300.69;;;-6.34;100.00
17054;BME280;8643;48.824;11.422;2022-12-18T07:16:22;98312.00;;;-6.32;100.00
17054;BME280;8643;48.824;11.422;2022-12-18T07:18:52;98309.97;;;-6.30;100.00
17054;BME280;8643;48.824;11.422;2022-12-18T07:21:22;98313.84;;;-6.33;100.00
17054;BME280;8643;48.824;11.422;2022-12-18T07:23:52;98303.78;;;-6.31;100.00
17054;BME280;8643;48.824;11.422;2022-12-18T07:26:22;98303.78;;;-6.31;100.00
17054;BME280;8643;48.824;11.422;2022-12-18T07:28:50;98309.59;;;-6.27;100.00
17054;BME280;8643;48.824;11.422;2022-12-18T07:31:20;98313.50;;;-6.23;100.00
17054;BME280;8643;48.824;11.422;2022-12-18T07:33:50;98318.47;;;-6.20;100.00
17054;BME280;8643;48.824;11.422;2022-12-18T07:36:23;98311.94;;;-6.17;100.00
17054;BME280;8643;48.824;11.422;2022-12-18T07:38:52;98309.16;;;-6.09;100.00
17054;BME280;8643;48.824;11.422;2022-12-18T07:41:21;98304.81;;;-6.10;100.00
17054;BME280;8643;48.824;11.422;2022-12-18T07:43:50;98308.72;;;-6.13;100.00
17054;BME280;8643;48.824;11.422;2022-12-18T07:46:20;98305.81;;;-6.11;100.00
17054;BME280;8643;48.824;11.422;2022-12-18T07:48:48;98306.69;;;-6.11;100.00
17054;BME280;8643;48.824;11.422;2022-12-18T07:51:18;98310.97;;;-6.10;100.00
17054;BME280;8643;48.824;11.422;2022-12-18T07:53:47;98312.44;;;-6.07;100.00
17054;BME280;8643;48.824;11.422;2022-12-18T07:56:20;98313.91;;;-6.04;100.00
17054;BME280;8643;48.824;11.422;2022-12-18T07:58:56;98310.66;;;-5.93;100.00
17054;BME280;8643;48.824;11.422;2022-12-18T08:01:25;98308.84;;;-5.93;100.00
17054;BME280;8643;48.824;11.422;2022-12-18T08:03:54;98322.19;;;-5.93;100.00
17054;BME280;8643;48.824;11.422;2022-12-18T08:06:22;98321.16;;;-5.92;100.00
17054;BME280;8643;48.824;11.422;2022-12-18T08:08:52;98326.69;;;-5.93;100.00
17054;BME280;8643;48.824;11.422;2022-12-18T08:11:24;98327.16;;;-5.90;100.00
17054;BME280;8643;48.824;11.422;2022-12-18T08:13:53;98329.81;;;-5.90;100.00
17054;BME280;8643;48.824;11.422;2022-12-18T08:16:22;98332.28;;;-5.88;100.00
17054;BME280;8643;48.824;11.422;2022-12-18T08:18:52;98342.97;;;-5.88;100.00
17054;BME280;8643;48.824;11.422;2022-12-18T08:21:24;98342.56;;;-5.85;100.00
17054;BME280;8643;48.824;11.422;2022-12-18T08:23:54;98355.50;;;-5.82;100.00
17054;BME280;8643;48.824;11.422;2022-12-18T08:26:26;98354.13;;;-5.78;100.00
17054;BME280;8643;48.824;11.422;2022-12-18T08:28:57;98358.50;;;-5.70;100.00
17054;BME280;8643;48.824;11.422;2022-12-18T08:31:28;98361.81;;;-5.68;100.00
17054;BME280;8643;48.824;11.422;2022-12-18T08:33:57;98351.94;;;-5.67;100.00
17054;BME280;8643;48.824;11.422;2022-12-18T08:36:26;98348.88;;;-5.64;100.00
17054;BME280;8643;48.824;11.422;2022-12-18T08:38:55;98348.88;;;-5.64;100.00
17054;BME280;8643;48.824;11.422;2022-12-18T08:41:26;98356.75;;;-5.56;100.00
17054;BME280;8643;48.824;11.422;2022-12-18T08:43:55;98364.19;;;-5.52;100.00
17054;BME280;8643;48.824;11.422;2022-12-18T08:46:43;98360.69;;;-5.52;100.00
17054;BME280;8643;48.824;11.422;2022-12-18T08:49:12;98369.13;;;-5.48;100.00
17054;BME280;8643;48.824;11.422;2022-12-18T08:51:41;98370.38;;;-5.44;100.00
17054;BME280;8643;48.824;11.422;2022-12-18T08:54:11;98367.59;;;-5.36;100.00
17054;BME280;8643;48.824;11.422;2022-12-18T08:56:41;98363.50;;;-5.32;100.00
17054;BME280;8643;48.824;11.422;2022-12-18T08:59:10;98357.97;;;-5.30;100.00
17054;BME280;8643;48.824;11.422;2022-12-18T09:01:47;98364.09;;;-5.37;100.00
17054;BME280;8643;48.824;11.422;2022-12-18T09:04:16;98358.56;;;-5.35;100.00
17054;BME280;8643;48.824;11.422;2022-12-18T09:06:44;98363.06;;;-5.36;100.00
17054;BME280;8643;48.824;11.422;2022-12-18T09:09:13;98357.78;;;-5.29;100.00
17054;BME280;8643;48.824;11.422;2022-12-18T09:11:43;98354.16;;;-5.21;100.00
17054;BME280;8643;48.824;11.422;2022-12-18T09:14:11;98348.84;;;-5.14;100.00
17054;BME280;8643;48.824;11.422;2022-12-18T09:16:40;98354.22;;;-5.08;100.00
17054;BME280;8643;48.824;11.422;2022-12-18T09:19:09;98352.75;;;-5.10;100.00
17054;BME280;8643;48.824;11.422;2022-12-18T09:21:38;98350.09;;;-5.10;100.00
17054;BME280;8643;48.824;11.422;2022-12-18T09:24:14;98352.28;;;-5.21;100.00
17054;BME280;8643;48.824;11.422;2022-12-18T09:26:44;98354.16;;;-5.21;100.00
17054;BME280;8643;48.824;11.422;2022-12-18T09:29:14;98351.47;;;-5.21;100.00
17054;BME280;8643;48.824;11.422;2022-12-18T09:31:45;98352.16;;;-5.06;100.00
17054;BME280;8643;48.824;11.422;2022-12-18T09:34:14;98345.84;;;-4.98;100.00
17054;BME280;8643;48.824;11.422;2022-12-18T09:36:43;98339.81;;;-5.07;100.00
17054;BME280;8643;48.824;11.422;2022-12-18T09:39:13;98338.66;;;-4.98;100.00
17054;BME280;8643;48.824;11.422;2022-12-18T09:41:50;98336.19;;;-4.99;100.00
17054;BME280;8643;48.824;11.422;2022-12-18T09:44:25;98336.56;;;-5.02;100.00
17054;BME280;8643;48.824;11.422;2022-12-18T09:47:08;98331.91;;;-4.93;100.00
17054;BME280;8643;48.824;11.422;2022-12-18T09:49:42;98317.34;;;-4.84;100.00
17054;BME280;8643;48.824;11.422;2022-12-18T09:52:18;98331.75;;;-4.79;100.00
17054;BME280;8643;48.824;11.422;2022-12-18T09:54:54;98322.47;;;-4.83;100.00
17054;BME280;8643;48.824;11.422;2022-12-18T09:57:25;98321.03;;;-4.92;100.00
17054;BME280;8643;48.824;11.422;2022-12-18T10:00:03;98325.81;;;-4.81;100.00
17054;BME280;8643;48.824;11.422;2022-12-18T10:02:37;98320.66;;;-4.82;100.00
17054;BME280;8643;48.824;11.422;2022-12-18T10:05:11;98321.91;;;-4.71;100.00
17054;BME280;8643;48.824;11.422;2022-12-18T10:07:57;98316.19;;;-4.62;100.00
17054;BME280;8643;48.824;11.422;2022-12-18T10:10:38;98319.91;;;-4.63;100.00
17054;BME280;8643;48.824;11.422;2022-12-18T10:13:21;98318.88;;;-4.55;100.00
17054;BME280;8643;48.824;11.422;2022-12-18T10:16:07;98316.44;;;-4.50;100.00
17054;BME280;8643;48.824;11.422;2022-12-18T10:18:57;98321.41;;;-4.40;100.00
17054;BME280;8643;48.824;11.422;2022-12-18T10:21:34;98318.91;;;-4.48;100.00
17054;BME280;8643;48.824;11.422;2022-12-18T10:24:17;98327.59;;;-4.39;100.00
17054;BME280;8643;48.824;11.422;2022-12-18T10:26:49;98327.13;;;-4.50;100.00
17054;BME280;8643;48.824;11.422;2022-12-18T10:29:19;98316.22;;;-4.48;100.00
17054;BME280;8643;48.824;11.422;2022-12-18T10:31:48;98308.25;;;-4.42;100.00
17054;BME280;8643;48.824;11.422;2022-12-18T10:34:17;98308.25;;;-4.42;100.00
17054;BME280;8643;48.824;11.422;2022-12-18T10:36:47;98314.84;;;-4.37;100.00
17054;BME280;8643;48.824;11.422;2022-12-18T10:39:18;98315.63;;;-4.44;100.00
17054;BME280;8643;48.824;11.422;2022-12-18T10:41:48;98315.88;;;-4.32;100.00
17054;BME280;8643;48.824;11.422;2022-12-18T10:44:20;98315.66;;;-4.37;100.00
17054;BME280;8643;48.824;11.422;2022-12-18T10:46:53;98323.25;;;-4.34;100.00
17054;BME280;8643;48.824;11.422;2022-12-18T10:49:26;98314.63;;;-4.29;100.00
17054;BME280;8643;48.824;11.422;2022-12-18T10:52:07;98306.03;;;-4.11;100.00
17054;BME280;8643;48.824;11.422;2022-12-18T10:54:48;98305.84;;;-4.03;100.00
17054;BME280;8643;48.824;11.422;2022-12-18T10:57:29;98306.25;;;-4.06;100.00
17054;BME280;8643;48.824;11.422;2022-12-18T11:00:21;98314.25;;;-4.06;100.00
17054;BME280;8643;48.824;11.422;2022-12-18T11:02:51;98311.59;;;-4.06;100.00
17054;BME280;8643;48.824;11.422;2022-12-18T11:05:29;98315.50;;;-4.09;100.00
17054;BME280;8643;48.824;11.422;2022-12-18T11:08:00;98325.16;;;-4.14;100.00
17054;BME280;8643;48.824;11.422;2022-12-18T11:10:32;98311.19;;;-4.03;100.00
17054;BME280;8643;48.824;11.422;2022-12-18T11:13:11;98315.13;;;-3.92;100.00
17054;BME280;8643;48.824;11.422;2022-12-18T11:15:42;98306.69;;;-3.96;100.00
17054;BME280;8643;48.824;11.422;2022-12-18T11:18:22;98308.31;;;-4.01;100.00
17054;BME280;8643;48.824;11.422;2022-12-18T11:20:56;98313.47;;;-4.00;100.00
17054;BME280;8643;48.824;11.422;2022-12-18T11:23:26;98316.97;;;-3.93;100.00
17054;BME280;8643;48.824;11.422;2022-12-18T11:25:58;98316.13;;;-4.00;100.00
17054;BME280;8643;48.824;11.422;2022-12-18T11:28:34;98315.13;;;-3.99;100.00
17054;BME280;8643;48.824;11.422;2022-12-18T11:31:25;98304.41;;;-4.06;100.00
17054;BME280;8643;48.824;11.422;2022-12-18T11:34:05;98299.25;;;-4.07;100.00
17054;BME280;8643;48.824;11.422;2022-12-18T11:36:55;98298.22;;;-4.06;100.00
17054;BME280;8643;48.824;11.422;2022-12-18T11:39:36;98294.13;;;-4.02;100.00
17054;BME280;8643;48.824;11.422;2022-12-18T11:42:13;98299.66;;;-4.10;100.00
17054;BME280;8643;48.824;11.422;2022-12-18T11:44:50;98295.34;;;-4.05;100.00
17054;BME280;8643;48.824;11.422;2022-12-18T11:47:28;98295.97;;;-4.02;100.00
17054;BME280;8643;48.824;11.422;2022-12-18T11:50:02;98294.94;;;-4.08;100.00
17054;BME280;8643;48.824;11.422;2022-12-18T11:52:37;98296.38;;;-3.99;100.00
17054;BME280;8643;48.824;11.422;2022-12-18T11:55:12;98289.56;;;-4.15;100.00
17054;BME280;8643;48.824;11.422;2022-12-18T11:57:54;98287.31;;;-4.18;100.00
17054;BME280;8643;48.824;11.422;2022-12-18T12:00:26;98284.84;;;-4.06;100.00
17054;BME280;8643;48.824;11.422;2022-12-18T12:03:22;98273.94;;;-3.91;100.00
17054;BME280;8643;48.824;11.422;2022-12-18T12:06:08;98278.25;;;-3.97;100.00
17054;BME280;8643;48.824;11.422;2022-12-18T12:09:04;98275.59;;;-3.97;100.00
17054;BME280;8643;48.824;11.422;2022-12-18T12:11:51;98268.78;;;-4.06;100.00
17054;BME280;8643;48.824;11.422;2022-12-18T12:14:44;98253.78;;;-4.00;100.00
17054;BME280;8643;48.824;11.422;2022-12-18T12:17:26;98260.34;;;-3.96;100.00
17054;BME280;8643;48.824;11.422;2022-12-18T12:20:08;98255.59;;;-4.01;100.00
17054;BME280;8643;48.824;11.422;2022-12-18T12:22:51;98255.41;;;-4.06;100.00
17054;BME280;8643;48.824;11.422;2022-12-18T12:25:33;98265.09;;;-4.18;100.00
17054;BME280;8643;48.824;11.422;2022-12-18T12:28:15;98267.56;;;-4.10;100.00
17054;BME280;8643;48.824;11.422;2022-12-18T12:30:58;98260.16;;;-4.01;100.00
17054;BME280;8643;48.824;11.422;2022-12-18T12:33:40;98263.88;;;-3.89;100.00
17054;BME280;8643;48.824;11.422;2022-12-18T12:36:26;98261.19;;;-3.89;100.00
17054;BME280;8643;48.824;11.422;2022-12-18T12:39:03;98265.50;;;-3.95;100.00
17054;BME280;8643;48.824;11.422;2022-12-18T12:41:38;98261.59;;;-3.92;100.00
17054;BME280;8643;48.824;11.422;2022-12-18T12:44:39;98259.31;;;-3.82;100.00
17054;BME280;8643;48.824;11.422;2022-12-18T12:47:20;98262.22;;;-4.10;100.00
17054;BME280;8643;48.824;11.422;2022-12-18T12:49:51;98259.53;;;-3.97;100.00
17054;BME280;8643;48.824;11.422;2022-12-18T12:52:31;98261.19;;;-3.96;100.00
17054;BME280;8643;48.824;11.422;2022-12-18T12:55:04;98264.88;;;-3.83;100.00
17054;BME280;8643;48.824;11.422;2022-12-18T12:57:46;98263.88;;;-3.89;100.00
17054;BME280;8643;48.824;11.422;2022-12-18T13:00:19;98263.03;;;-3.76;100.00
17054;BME280;8643;48.824;11.422;2022-12-18T13:02:52;98253.97;;;-3.75;100.00
17054;BME280;8643;48.824;11.422;2022-12-18T13:05:30;98260.34;;;-3.63;100.00
17054;BME280;8643;48.824;11.422;2022-12-18T13:08:05;98259.50;;;-3.43;100.00
17054;BME280;8643;48.824;11.422;2022-12-18T13:10:38;98260.50;;;-3.44;100.00
17054;BME280;8643;48.824;11.422;2022-12-18T13:13:09;98263.84;;;-3.69;100.00
17054;BME280;8643;48.824;11.422;2022-12-18T13:15:40;98264.47;;;-3.94;100.00
17054;BME280;8643;48.824;11.422;2022-12-18T13:18:28;98256.44;;;-3.94;100.00
17054;BME280;8643;48.824;11.422;2022-12-18T13:21:05;98248.81;;;-3.83;100.00